createdAt,value
2023-02-04T00:00:41.461Z,11.70
2023-02-04T00:07:27.703Z,12.60
2023-02-04T00:13:29.520Z,11.50
2023-02-04T00:16:31.138Z,11.70
2023-02-04T00:19:44.846Z,12.40
2023-02-04T00:22:44.958Z,14.80
2023-02-04T00:26:12.340Z,12.40
2023-02-04T00:32:29.691Z,13.20
2023-02-04T00:38:16.956Z,13.10
2023-02-04T00:41:44.094Z,12.90
2023-02-04T00:44:58.572Z,12.90
2023-02-04T01:07:12.714Z,12.50
2023-02-04T01:09:58.945Z,15.30
2023-02-04T01:12:45.205Z,10.30
2023-02-04T01:15:31.670Z,10.90
2023-02-04T01:22:12.944Z,9.00
2023-02-04T01:25:13.497Z,10.20
2023-02-04T01:28:14.490Z,12.90
2023-02-04T01:34:58.625Z,8.40
2023-02-04T01:38:12.315Z,10.40
2023-02-04T01:47:45.101Z,14.40
2023-02-04T01:53:22.106Z,10.20
2023-02-04T02:03:09.414Z,12.90
2023-02-04T02:13:05.263Z,11.20
2023-02-04T02:15:52.098Z,10.40
2023-02-04T02:18:52.045Z,11.20
2023-02-04T02:25:28.636Z,13.60
2023-02-04T02:37:57.692Z,10.00
2023-02-04T02:41:00.259Z,10.30
2023-02-04T02:44:04.907Z,10.70
2023-02-04T02:50:48.919Z,8.50
2023-02-04T02:53:36.215Z,10.50
2023-02-04T02:59:51.409Z,13.70
2023-02-04T03:09:23.743Z,11.00
2023-02-04T03:15:24.756Z,11.90
2023-02-04T03:21:39.048Z,10.30
2023-02-04T03:24:25.390Z,8.40
2023-02-04T03:27:39.120Z,8.20
2023-02-04T03:34:07.305Z,9.00
2023-02-04T03:40:35.440Z,9.10
2023-02-04T03:43:58.153Z,7.70
2023-02-04T04:00:29.893Z,10.00
2023-02-04T04:16:26.006Z,9.00
2023-02-04T04:19:11.944Z,8.30
2023-02-04T04:22:11.672Z,7.90
2023-02-04T04:24:44.541Z,7.00
2023-02-04T04:27:44.799Z,8.50
2023-02-04T04:34:29.137Z,6.70
2023-02-04T04:47:01.222Z,9.30
2023-02-04T04:58:52.958Z,8.30
2023-02-04T05:02:06.732Z,8.90
2023-02-04T05:18:09.596Z,6.00
2023-02-04T05:26:56.867Z,6.40
2023-02-04T05:37:05.724Z,6.00
2023-02-04T05:42:21.451Z,5.90
2023-02-04T05:45:59.214Z,7.20
2023-02-04T05:52:13.638Z,7.10
2023-02-04T06:04:37.229Z,5.40
2023-02-04T06:10:24.952Z,5.10
2023-02-04T06:13:25.407Z,6.70
2023-02-04T06:23:21.150Z,8.40
2023-02-04T06:30:02.260Z,5.70
2023-02-04T06:32:51.212Z,7.10
2023-02-04T06:35:54.931Z,7.10
2023-02-04T06:57:11.721Z,11.50
2023-02-04T07:00:43.295Z,11.10
2023-02-04T07:06:56.818Z,10.50
2023-02-04T07:22:52.884Z,5.20
2023-02-04T07:31:54.720Z,7.30
2023-02-04T07:41:22.931Z,4.00
2023-02-04T07:50:41.248Z,3.70
2023-02-04T07:57:36.109Z,3.90
2023-02-04T08:00:24.267Z,4.70
2023-02-04T08:03:24.320Z,4.20
2023-02-04T08:12:11.080Z,3.90
2023-02-04T08:14:57.511Z,5.20
2023-02-04T08:18:10.733Z,3.20
2023-02-04T08:23:59.383Z,3.90
2023-02-04T08:27:00.355Z,5.10
2023-02-04T08:33:14.295Z,5.90
2023-02-04T08:36:14.231Z,6.90
2023-02-04T08:39:00.809Z,8.20
2023-02-04T08:41:46.923Z,9.00
2023-02-04T08:55:15.904Z,4.30
2023-02-04T08:58:29.053Z,3.90
2023-02-04T09:04:42.948Z,8.50
2023-02-04T09:20:40.347Z,5.30
2023-02-04T09:23:40.717Z,6.20
2023-02-04T09:26:40.468Z,6.20
2023-02-04T09:29:40.150Z,7.50
2023-02-04T09:43:17.769Z,10.60
2023-02-04T09:46:18.318Z,38.90
2023-02-04T09:49:45.472Z,33.90
2023-02-04T09:52:33.193Z,13.70
2023-02-04T09:59:15.215Z,33.80
2023-02-04T10:02:19.886Z,11.10
2023-02-04T10:04:54.157Z,22.90
2023-02-04T10:08:09.025Z,24.20
2023-02-04T10:11:23.280Z,10.50
2023-02-04T10:16:59.751Z,6.00
2023-02-04T10:19:46.341Z,7.00
2023-02-04T10:26:28.782Z,11.20
2023-02-04T10:29:38.521Z,9.80
2023-02-04T10:32:42.741Z,6.70
2023-02-04T10:35:56.211Z,6.40
2023-02-04T10:39:10.140Z,5.90
2023-02-04T10:45:56.601Z,4.70
2023-02-04T10:55:47.207Z,3.90
2023-02-04T11:08:57.937Z,4.60
2023-02-04T11:15:11.459Z,3.80
2023-02-04T11:28:08.939Z,6.10
2023-02-04T11:37:55.792Z,3.20
2023-02-04T11:40:36.080Z,3.50
2023-02-04T11:43:36.131Z,3.10
2023-02-04T11:46:43.429Z,3.30
2023-02-04T11:56:06.134Z,3.10
2023-02-04T12:02:20.536Z,13.10
2023-02-04T12:08:35.169Z,5.00
2023-02-04T12:15:20.440Z,4.70
2023-02-04T12:18:20.878Z,5.40
2023-02-04T12:21:48.141Z,4.10
2023-02-04T12:24:34.967Z,5.30
2023-02-04T12:27:34.750Z,7.70
2023-02-04T12:30:20.978Z,5.00
2023-02-04T12:36:48.398Z,3.20
2023-02-04T12:39:48.910Z,3.80
2023-02-04T12:48:51.358Z,4.70
2023-02-04T12:52:05.191Z,3.40
2023-02-04T12:55:06.035Z,2.90
2023-02-04T12:58:20.060Z,6.00
2023-02-04T13:01:06.270Z,5.00
2023-02-04T13:04:06.452Z,4.50
2023-02-04T13:10:06.440Z,3.40
2023-02-04T13:19:20.732Z,3.80
2023-02-04T13:21:53.164Z,4.80
2023-02-04T13:34:21.556Z,5.00
2023-02-04T13:40:39.409Z,3.00
2023-02-04T13:49:41.443Z,3.60
2023-02-04T13:53:38.596Z,3.40
2023-02-04T13:56:38.750Z,2.90
2023-02-04T13:59:39.204Z,3.40
2023-02-04T14:02:13.408Z,3.50
2023-02-04T14:08:00.421Z,3.40
2023-02-04T14:14:01.183Z,3.50
2023-02-04T14:23:43.743Z,3.30
2023-02-04T14:33:45.166Z,3.50
2023-02-04T14:43:12.582Z,4.00
2023-02-04T14:45:45.369Z,3.90
2023-02-04T14:55:14.694Z,3.40
2023-02-04T15:01:29.357Z,3.50
2023-02-04T15:04:29.794Z,4.20
2023-02-04T15:07:16.411Z,4.90
2023-02-04T15:20:11.767Z,3.90
2023-02-04T15:23:25.569Z,3.70
2023-02-04T15:45:46.601Z,5.50
2023-02-04T16:21:37.628Z,5.40
2023-02-04T16:24:11.167Z,5.40
2023-02-04T16:27:24.905Z,5.10
2023-02-04T16:36:30.432Z,5.30
2023-02-04T16:39:45.518Z,5.70
2023-02-04T16:42:32.427Z,8.60
2023-02-04T16:45:45.977Z,9.10
2023-02-04T16:54:48.497Z,13.10
2023-02-04T17:23:55.178Z,5.20
2023-02-04T17:29:54.849Z,5.30
2023-02-04T17:32:41.098Z,4.80
2023-02-04T17:35:41.317Z,6.60
2023-02-04T17:38:28.526Z,5.00
2023-02-04T17:41:15.377Z,5.20
2023-02-04T17:44:20.149Z,6.20
2023-02-04T17:53:50.895Z,4.40
2023-02-04T17:59:53.830Z,6.40
2023-02-04T18:03:07.896Z,6.60
2023-02-04T18:06:29.577Z,6.30
2023-02-04T18:11:51.635Z,5.10
2023-02-04T18:15:04.966Z,5.80
2023-02-04T18:18:21.906Z,5.30
2023-02-04T18:24:14.413Z,5.40
2023-02-04T18:27:36.605Z,5.70
2023-02-04T18:30:26.393Z,6.30
2023-02-04T18:36:16.951Z,9.60
2023-02-04T18:39:16.814Z,5.90
2023-02-04T18:48:38.628Z,8.80
2023-02-04T18:51:42.430Z,6.10
2023-02-04T18:54:45.509Z,6.50
2023-02-04T18:57:52.194Z,6.20
2023-02-04T19:10:35.053Z,7.90
2023-02-04T19:13:52.689Z,9.30
2023-02-04T19:16:54.265Z,13.20
2023-02-04T19:26:51.872Z,11.40
2023-02-04T19:33:26.907Z,13.80
2023-02-04T19:36:42.703Z,9.90
2023-02-04T20:05:10.654Z,11.50
2023-02-04T20:10:56.768Z,12.90
2023-02-04T20:14:10.747Z,11.00
2023-02-04T20:27:09.862Z,12.70
2023-02-04T20:30:00.559Z,14.00
2023-02-04T20:32:50.116Z,24.30
2023-02-04T20:36:21.381Z,15.70
2023-02-04T20:46:35.027Z,9.00
2023-02-04T20:49:23.118Z,7.40
2023-02-04T20:55:29.876Z,8.40
2023-02-04T21:05:32.445Z,4.10
2023-02-04T21:11:44.802Z,3.30
2023-02-04T21:14:44.930Z,3.00
2023-02-04T21:27:26.900Z,2.70
2023-02-04T21:33:00.719Z,2.90
2023-02-04T21:36:01.123Z,1.70
2023-02-04T21:42:16.427Z,1.50
2023-02-04T21:48:31.209Z,1.60
2023-02-04T21:54:31.249Z,1.00
2023-02-04T22:03:47.160Z,1.90
2023-02-04T22:07:01.144Z,1.80
2023-02-04T22:10:14.517Z,1.60
2023-02-04T22:15:34.025Z,1.10
2023-02-04T22:24:52.978Z,1.70
2023-02-04T22:27:26.198Z,2.00
2023-02-04T22:42:56.136Z,1.10
2023-02-04T22:49:23.302Z,1.50
2023-02-04T22:52:09.739Z,1.80
2023-02-04T22:58:52.921Z,1.40
2023-02-04T23:11:23.189Z,2.10
2023-02-04T23:14:50.455Z,2.00
2023-02-04T23:17:22.924Z,2.20
2023-02-04T23:30:24.553Z,1.40
2023-02-04T23:36:52.743Z,1.60
2023-02-04T23:42:52.688Z,1.50
2023-02-04T23:48:56.210Z,2.00
